sensor_id;sensor_type;location;lat;lon;timestamp;temperature;humidity
5508;DHT22;2776;51.046;6.772;2022-08-21T00:00:45;16.30;99.90
5508;DHT22;2776;51.046;6.772;2022-08-21T00:03:12;16.30;99.90
5508;DHT22;2776;51.046;6.772;2022-08-21T00:05:40;16.20;99.90
5508;DHT22;2776;51.046;6.772;2022-08-21T00:08:08;16.20;99.90
5508;DHT22;2776;51.046;6.772;2022-08-21T00:10:35;16.20;99.90
5508;DHT22;2776;51.046;6.772;2022-08-21T00:13:04;16.20;99.90
5508;DHT22;2776;51.046;6.772;2022-08-21T00:15:36;16.20;99.90
5508;DHT22;2776;51.046;6.772;2022-08-21T00:18:04;16.20;99.90
5508;DHT22;2776;51.046;6.772;2022-08-21T00:20:31;16.10;99.90
5508;DHT22;2776;51.046;6.772;2022-08-21T00:22:58;16.10;99.90
5508;DHT22;2776;51.046;6.772;2022-08-21T00:25:25;16.10;99.90
5508;DHT22;2776;51.046;6.772;2022-08-21T00:27:52;16.20;99.90
5508;DHT22;2776;51.046;6.772;2022-08-21T00:30:20;16.20;99.90
5508;DHT22;2776;51.046;6.772;2022-08-21T00:32:49;16.20;99.90
5508;DHT22;2776;51.046;6.772;2022-08-21T00:35:18;16.20;99.90
5508;DHT22;2776;51.046;6.772;2022-08-21T00:37:45;16.20;99.90
5508;DHT22;2776;51.046;6.772;2022-08-21T00:40:14;16.20;99.90
5508;DHT22;2776;51.046;6.772;2022-08-21T00:42:41;16.20;99.90
5508;DHT22;2776;51.046;6.772;2022-08-21T00:45:10;16.20;99.90
5508;DHT22;2776;51.046;6.772;2022-08-21T00:47:37;16.10;99.90
5508;DHT22;2776;51.046;6.772;2022-08-21T00:50:08;16.00;99.90
5508;DHT22;2776;51.046;6.772;2022-08-21T00:52:36;15.90;99.90
5508;DHT22;2776;51.046;6.772;2022-08-21T00:55:06;15.90;99.90
5508;DHT22;2776;51.046;6.772;2022-08-21T00:57:38;15.80;99.90
5508;DHT22;2776;51.046;6.772;2022-08-21T01:00:09;15.80;99.90
5508;DHT22;2776;51.046;6.772;2022-08-21T01:02:36;15.80;99.90
5508;DHT22;2776;51.046;6.772;2022-08-21T01:05:05;15.80;99.90
5508;DHT22;2776;51.046;6.772;2022-08-21T01:07:32;15.90;99.90
5508;DHT22;2776;51.046;6.772;2022-08-21T01:09:59;15.90;99.90
5508;DHT22;2776;51.046;6.772;2022-08-21T01:12:26;15.80;99.90
5508;DHT22;2776;51.046;6.772;2022-08-21T01:14:53;15.80;99.90
5508;DHT22;2776;51.046;6.772;2022-08-21T01:17:20;15.70;99.90
5508;DHT22;2776;51.046;6.772;2022-08-21T01:19:48;15.80;99.90
5508;DHT22;2776;51.046;6.772;2022-08-21T01:22:16;15.80;99.90
5508;DHT22;2776;51.046;6.772;2022-08-21T01:24:42;15.70;99.90
5508;DHT22;2776;51.046;6.772;2022-08-21T01:27:09;15.70;99.90
5508;DHT22;2776;51.046;6.772;2022-08-21T01:29:39;15.70;99.90
5508;DHT22;2776;51.046;6.772;2022-08-21T01:32:10;15.70;99.90
5508;DHT22;2776;51.046;6.772;2022-08-21T01:34:40;15.70;99.90
5508;DHT22;2776;51.046;6.772;2022-08-21T01:37:08;15.60;99.90
5508;DHT22;2776;51.046;6.772;2022-08-21T01:39:36;15.60;99.90
5508;DHT22;2776;51.046;6.772;2022-08-21T01:42:04;15.50;99.90
5508;DHT22;2776;51.046;6.772;2022-08-21T01:44:31;15.50;99.90
5508;DHT22;2776;51.046;6.772;2022-08-21T01:46:59;15.50;99.90
5508;DHT22;2776;51.046;6.772;2022-08-21T01:49:27;15.50;99.90
5508;DHT22;2776;51.046;6.772;2022-08-21T01:51:54;15.50;99.90
5508;DHT22;2776;51.046;6.772;2022-08-21T01:54:21;15.30;99.90
5508;DHT22;2776;51.046;6.772;2022-08-21T01:56:51;15.30;99.90
5508;DHT22;2776;51.046;6.772;2022-08-21T01:59:19;15.30;99.90
5508;DHT22;2776;51.046;6.772;2022-08-21T02:01:46;15.30;99.90
5508;DHT22;2776;51.046;6.772;2022-08-21T02:04:12;15.30;99.90
5508;DHT22;2776;51.046;6.772;2022-08-21T02:06:39;15.30;99.90
5508;DHT22;2776;51.046;6.772;2022-08-21T02:09:08;15.20;99.90
5508;DHT22;2776;51.046;6.772;2022-08-21T02:11:35;15.20;99.90
5508;DHT22;2776;51.046;6.772;2022-08-21T02:14:07;15.10;99.90
5508;DHT22;2776;51.046;6.772;2022-08-21T02:16:33;15.10;99.90
5508;DHT22;2776;51.046;6.772;2022-08-21T02:19:00;15.00;99.90
5508;DHT22;2776;51.046;6.772;2022-08-21T02:21:27;15.00;99.90
5508;DHT22;2776;51.046;6.772;2022-08-21T02:23:54;14.90;99.90
5508;DHT22;2776;51.046;6.772;2022-08-21T02:26:21;14.90;99.90
5508;DHT22;2776;51.046;6.772;2022-08-21T02:28:48;14.90;99.90
5508;DHT22;2776;51.046;6.772;2022-08-21T02:31:16;14.90;99.90
5508;DHT22;2776;51.046;6.772;2022-08-21T02:33:43;14.90;99.90
5508;DHT22;2776;51.046;6.772;2022-08-21T02:36:11;14.80;99.90
5508;DHT22;2776;51.046;6.772;2022-08-21T02:38:40;14.80;99.90
5508;DHT22;2776;51.046;6.772;2022-08-21T02:41:09;14.80;99.90
5508;DHT22;2776;51.046;6.772;2022-08-21T02:43:36;14.90;99.90
5508;DHT22;2776;51.046;6.772;2022-08-21T02:46:05;14.80;99.90
5508;DHT22;2776;51.046;6.772;2022-08-21T02:48:34;14.80;99.90
5508;DHT22;2776;51.046;6.772;2022-08-21T02:51:03;14.70;99.90
5508;DHT22;2776;51.046;6.772;2022-08-21T02:53:31;14.70;99.90
5508;DHT22;2776;51.046;6.772;2022-08-21T02:56:00;14.70;99.90
5508;DHT22;2776;51.046;6.772;2022-08-21T02:58:30;14.80;99.90
5508;DHT22;2776;51.046;6.772;2022-08-21T03:00:57;14.80;99.90
5508;DHT22;2776;51.046;6.772;2022-08-21T03:03:24;14.70;99.90
5508;DHT22;2776;51.046;6.772;2022-08-21T03:05:53;14.70;99.90
5508;DHT22;2776;51.046;6.772;2022-08-21T03:08:22;14.80;99.90
5508;DHT22;2776;51.046;6.772;2022-08-21T03:10:50;14.80;99.90
5508;DHT22;2776;51.046;6.772;2022-08-21T03:13:18;14.80;99.90
5508;DHT22;2776;51.046;6.772;2022-08-21T03:15:46;14.80;99.90
5508;DHT22;2776;51.046;6.772;2022-08-21T03:18:14;14.80;99.90
5508;DHT22;2776;51.046;6.772;2022-08-21T03:20:41;14.80;99.90
5508;DHT22;2776;51.046;6.772;2022-08-21T03:23:12;14.80;99.90
5508;DHT22;2776;51.046;6.772;2022-08-21T03:25:39;14.80;99.90
5508;DHT22;2776;51.046;6.772;2022-08-21T03:28:08;14.80;99.90
5508;DHT22;2776;51.046;6.772;2022-08-21T03:30:36;14.80;99.90
5508;DHT22;2776;51.046;6.772;2022-08-21T03:33:03;14.70;99.90
5508;DHT22;2776;51.046;6.772;2022-08-21T03:35:30;14.60;99.90
5508;DHT22;2776;51.046;6.772;2022-08-21T03:37:56;14.50;99.90
5508;DHT22;2776;51.046;6.772;2022-08-21T03:40:25;14.60;99.90
5508;DHT22;2776;51.046;6.772;2022-08-21T03:42:52;14.60;99.90
5508;DHT22;2776;51.046;6.772;2022-08-21T03:45:19;14.50;99.90
5508;DHT22;2776;51.046;6.772;2022-08-21T03:47:54;14.50;99.90
5508;DHT22;2776;51.046;6.772;2022-08-21T03:50:22;14.60;99.90
5508;DHT22;2776;51.046;6.772;2022-08-21T03:52:49;14.60;99.90
5508;DHT22;2776;51.046;6.772;2022-08-21T03:55:16;14.60;99.90
5508;DHT22;2776;51.046;6.772;2022-08-21T03:57:44;14.60;99.90
5508;DHT22;2776;51.046;6.772;2022-08-21T04:00:13;14.60;99.90
5508;DHT22;2776;51.046;6.772;2022-08-21T04:02:41;14.50;99.90
5508;DHT22;2776;51.046;6.772;2022-08-21T04:05:09;14.40;99.90
5508;DHT22;2776;51.046;6.772;2022-08-21T04:07:36;14.30;99.90
5508;DHT22;2776;51.046;6.772;2022-08-21T04:10:04;14.30;99.90
5508;DHT22;2776;51.046;6.772;2022-08-21T04:12:32;14.20;99.90
5508;DHT22;2776;51.046;6.772;2022-08-21T04:15:00;14.00;99.90
5508;DHT22;2776;51.046;6.772;2022-08-21T04:17:27;14.00;99.90
5508;DHT22;2776;51.046;6.772;2022-08-21T04:19:54;14.00;99.90
5508;DHT22;2776;51.046;6.772;2022-08-21T04:22:20;13.90;99.90
5508;DHT22;2776;51.046;6.772;2022-08-21T04:24:47;13.90;99.90
5508;DHT22;2776;51.046;6.772;2022-08-21T04:27:15;13.90;99.90
5508;DHT22;2776;51.046;6.772;2022-08-21T04:29:41;13.90;99.90
5508;DHT22;2776;51.046;6.772;2022-08-21T04:32:10;13.90;99.90
5508;DHT22;2776;51.046;6.772;2022-08-21T04:34:36;13.90;99.90
5508;DHT22;2776;51.046;6.772;2022-08-21T04:37:03;14.00;99.90
5508;DHT22;2776;51.046;6.772;2022-08-21T04:39:30;14.10;99.90
5508;DHT22;2776;51.046;6.772;2022-08-21T04:41:57;14.10;99.90
5508;DHT22;2776;51.046;6.772;2022-08-21T04:44:24;14.10;99.90
5508;DHT22;2776;51.046;6.772;2022-08-21T04:46:50;14.10;99.90
5508;DHT22;2776;51.046;6.772;2022-08-21T04:49:18;14.10;99.90
5508;DHT22;2776;51.046;6.772;2022-08-21T04:51:45;14.00;99.90
5508;DHT22;2776;51.046;6.772;2022-08-21T04:54:16;14.00;99.90
5508;DHT22;2776;51.046;6.772;2022-08-21T04:56:47;14.10;99.90
5508;DHT22;2776;51.046;6.772;2022-08-21T04:59:17;14.10;99.90
5508;DHT22;2776;51.046;6.772;2022-08-21T05:01:45;14.10;99.90
5508;DHT22;2776;51.046;6.772;2022-08-21T05:04:15;14.10;99.90
5508;DHT22;2776;51.046;6.772;2022-08-21T05:06:46;14.20;99.90
5508;DHT22;2776;51.046;6.772;2022-08-21T05:09:15;14.20;99.90
5508;DHT22;2776;51.046;6.772;2022-08-21T05:11:43;14.30;99.90
5508;DHT22;2776;51.046;6.772;2022-08-21T05:14:10;14.40;99.90
5508;DHT22;2776;51.046;6.772;2022-08-21T05:16:38;14.50;99.90
5508;DHT22;2776;51.046;6.772;2022-08-21T05:19:06;14.60;99.90
5508;DHT22;2776;51.046;6.772;2022-08-21T05:21:33;14.60;99.90
5508;DHT22;2776;51.046;6.772;2022-08-21T05:24:02;14.60;99.90
5508;DHT22;2776;51.046;6.772;2022-08-21T05:26:29;14.60;99.90
5508;DHT22;2776;51.046;6.772;2022-08-21T05:28:56;14.60;99.90
5508;DHT22;2776;51.046;6.772;2022-08-21T05:31:23;14.70;99.90
5508;DHT22;2776;51.046;6.772;2022-08-21T05:33:50;14.80;99.90
5508;DHT22;2776;51.046;6.772;2022-08-21T05:36:17;14.90;99.90
5508;DHT22;2776;51.046;6.772;2022-08-21T05:38:44;15.10;99.90
5508;DHT22;2776;51.046;6.772;2022-08-21T05:41:12;15.50;99.90
5508;DHT22;2776;51.046;6.772;2022-08-21T05:43:39;16.00;99.90
5508;DHT22;2776;51.046;6.772;2022-08-21T05:46:07;16.30;99.90
5508;DHT22;2776;51.046;6.772;2022-08-21T05:48:35;16.70;99.90
5508;DHT22;2776;51.046;6.772;2022-08-21T05:51:05;16.90;99.90
5508;DHT22;2776;51.046;6.772;2022-08-21T05:53:32;17.20;99.90
5508;DHT22;2776;51.046;6.772;2022-08-21T05:55:59;17.40;99.90
5508;DHT22;2776;51.046;6.772;2022-08-21T05:58:31;17.40;99.90
5508;DHT22;2776;51.046;6.772;2022-08-21T06:00:59;17.60;99.90
5508;DHT22;2776;51.046;6.772;2022-08-21T06:03:30;17.80;99.90
5508;DHT22;2776;51.046;6.772;2022-08-21T06:05:57;17.90;99.90
5508;DHT22;2776;51.046;6.772;2022-08-21T06:08:24;17.90;99.90
5508;DHT22;2776;51.046;6.772;2022-08-21T06:10:52;18.00;99.90
5508;DHT22;2776;51.046;6.772;2022-08-21T06:13:20;18.10;99.90
5508;DHT22;2776;51.046;6.772;2022-08-21T06:15:49;18.10;99.90
5508;DHT22;2776;51.046;6.772;2022-08-21T06:18:17;18.10;99.90
5508;DHT22;2776;51.046;6.772;2022-08-21T06:20:44;18.10;99.90
5508;DHT22;2776;51.046;6.772;2022-08-21T06:23:11;18.10;99.90
5508;DHT22;2776;51.046;6.772;2022-08-21T06:25:38;18.20;99.90
5508;DHT22;2776;51.046;6.772;2022-08-21T06:28:07;18.30;99.90
5508;DHT22;2776;51.046;6.772;2022-08-21T06:30:35;18.40;99.90
5508;DHT22;2776;51.046;6.772;2022-08-21T06:33:05;18.50;99.90
5508;DHT22;2776;51.046;6.772;2022-08-21T06:35:33;18.50;99.90
5508;DHT22;2776;51.046;6.772;2022-08-21T06:38:00;18.60;99.90
5508;DHT22;2776;51.046;6.772;2022-08-21T06:40:27;18.50;99.90
5508;DHT22;2776;51.046;6.772;2022-08-21T06:42:54;18.70;99.90
5508;DHT22;2776;51.046;6.772;2022-08-21T06:45:22;18.80;99.90
5508;DHT22;2776;51.046;6.772;2022-08-21T06:47:48;18.80;99.90
5508;DHT22;2776;51.046;6.772;2022-08-21T06:50:16;19.00;99.90
5508;DHT22;2776;51.046;6.772;2022-08-21T06:52:45;19.00;99.90
5508;DHT22;2776;51.046;6.772;2022-08-21T06:55:11;19.10;99.90
5508;DHT22;2776;51.046;6.772;2022-08-21T06:57:38;19.20;99.90
5508;DHT22;2776;51.046;6.772;2022-08-21T07:00:06;19.40;99.90
5508;DHT22;2776;51.046;6.772;2022-08-21T07:02:33;19.50;99.90
5508;DHT22;2776;51.046;6.772;2022-08-21T07:05:00;19.50;99.90
5508;DHT22;2776;51.046;6.772;2022-08-21T07:07:29;19.70;99.90
5508;DHT22;2776;51.046;6.772;2022-08-21T07:09:55;19.80;99.90
5508;DHT22;2776;51.046;6.772;2022-08-21T07:12:22;19.90;99.90
5508;DHT22;2776;51.046;6.772;2022-08-21T07:14:49;20.10;99.90
5508;DHT22;2776;51.046;6.772;2022-08-21T07:17:16;20.20;99.90
5508;DHT22;2776;51.046;6.772;2022-08-21T07:19:43;20.30;99.90
5508;DHT22;2776;51.046;6.772;2022-08-21T07:22:09;20.40;99.90
5508;DHT22;2776;51.046;6.772;2022-08-21T07:24:38;20.50;99.90
5508;DHT22;2776;51.046;6.772;2022-08-21T07:27:04;20.70;99.90
5508;DHT22;2776;51.046;6.772;2022-08-21T07:29:31;20.80;99.90
5508;DHT22;2776;51.046;6.772;2022-08-21T07:31:58;20.90;99.90
5508;DHT22;2776;51.046;6.772;2022-08-21T07:34:25;20.90;99.90
5508;DHT22;2776;51.046;6.772;2022-08-21T07:36:51;21.00;99.90
5508;DHT22;2776;51.046;6.772;2022-08-21T07:39:18;21.10;99.90
5508;DHT22;2776;51.046;6.772;2022-08-21T07:41:46;21.10;99.90
5508;DHT22;2776;51.046;6.772;2022-08-21T07:44:13;21.20;99.90
5508;DHT22;2776;51.046;6.772;2022-08-21T07:46:40;21.10;99.90
5508;DHT22;2776;51.046;6.772;2022-08-21T07:49:06;21.20;99.90
5508;DHT22;2776;51.046;6.772;2022-08-21T07:51:33;21.20;99.90
5508;DHT22;2776;51.046;6.772;2022-08-21T07:54:00;21.30;99.90
5508;DHT22;2776;51.046;6.772;2022-08-21T07:56:28;21.30;99.90
5508;DHT22;2776;51.046;6.772;2022-08-21T07:58:57;21.40;99.90
5508;DHT22;2776;51.046;6.772;2022-08-21T08:01:24;21.40;99.90
5508;DHT22;2776;51.046;6.772;2022-08-21T08:03:51;21.50;99.90
5508;DHT22;2776;51.046;6.772;2022-08-21T08:06:18;21.70;99.90
5508;DHT22;2776;51.046;6.772;2022-08-21T08:08:45;21.90;99.90
5508;DHT22;2776;51.046;6.772;2022-08-21T08:11:13;21.90;99.90
5508;DHT22;2776;51.046;6.772;2022-08-21T08:13:42;22.10;99.90
5508;DHT22;2776;51.046;6.772;2022-08-21T08:16:11;22.10;99.90
5508;DHT22;2776;51.046;6.772;2022-08-21T08:18:38;22.00;99.90
5508;DHT22;2776;51.046;6.772;2022-08-21T08:21:07;22.10;99.90
5508;DHT22;2776;51.046;6.772;2022-08-21T08:23:34;22.10;99.90
5508;DHT22;2776;51.046;6.772;2022-08-21T08:26:01;22.10;99.90
5508;DHT22;2776;51.046;6.772;2022-08-21T08:28:29;22.20;99.90
5508;DHT22;2776;51.046;6.772;2022-08-21T08:30:57;22.30;99.90
5508;DHT22;2776;51.046;6.772;2022-08-21T08:33:25;22.30;99.90
5508;DHT22;2776;51.046;6.772;2022-08-21T08:35:53;22.30;99.90
5508;DHT22;2776;51.046;6.772;2022-08-21T08:38:21;22.30;99.90
5508;DHT22;2776;51.046;6.772;2022-08-21T08:40:54;22.30;99.90
5508;DHT22;2776;51.046;6.772;2022-08-21T08:43:25;22.40;99.90
5508;DHT22;2776;51.046;6.772;2022-08-21T08:45:54;22.40;99.90
5508;DHT22;2776;51.046;6.772;2022-08-21T08:48:33;22.40;99.90
5508;DHT22;2776;51.046;6.772;2022-08-21T08:51:02;22.40;99.90
5508;DHT22;2776;51.046;6.772;2022-08-21T08:53:34;22.40;99.90
5508;DHT22;2776;51.046;6.772;2022-08-21T08:56:05;22.50;99.90
5508;DHT22;2776;51.046;6.772;2022-08-21T08:58:36;22.50;99.90
5508;DHT22;2776;51.046;6.772;2022-08-21T09:01:06;22.70;99.90
5508;DHT22;2776;51.046;6.772;2022-08-21T09:03:39;22.80;99.90
5508;DHT22;2776;51.046;6.772;2022-08-21T09:06:13;23.00;99.90
5508;DHT22;2776;51.046;6.772;2022-08-21T09:08:53;23.10;99.90
5508;DHT22;2776;51.046;6.772;2022-08-21T09:11:28;23.20;99.90
5508;DHT22;2776;51.046;6.772;2022-08-21T09:14:03;23.20;99.90
5508;DHT22;2776;51.046;6.772;2022-08-21T09:16:41;23.40;99.90
5508;DHT22;2776;51.046;6.772;2022-08-21T09:19:23;23.50;99.90
5508;DHT22;2776;51.046;6.772;2022-08-21T09:22:00;23.50;99.90
5508;DHT22;2776;51.046;6.772;2022-08-21T09:24:32;23.60;99.90
5508;DHT22;2776;51.046;6.772;2022-08-21T09:27:05;23.50;99.90
5508;DHT22;2776;51.046;6.772;2022-08-21T09:29:35;23.60;99.90
5508;DHT22;2776;51.046;6.772;2022-08-21T09:32:03;23.50;99.90
5508;DHT22;2776;51.046;6.772;2022-08-21T09:34:31;23.50;99.90
5508;DHT22;2776;51.046;6.772;2022-08-21T09:36:58;23.50;99.90
5508;DHT22;2776;51.046;6.772;2022-08-21T09:39:29;23.50;99.90
5508;DHT22;2776;51.046;6.772;2022-08-21T09:41:57;23.60;99.90
5508;DHT22;2776;51.046;6.772;2022-08-21T09:44:26;23.60;99.90
5508;DHT22;2776;51.046;6.772;2022-08-21T09:46:54;23.70;99.90
5508;DHT22;2776;51.046;6.772;2022-08-21T09:49:27;23.70;99.90
5508;DHT22;2776;51.046;6.772;2022-08-21T09:51:57;23.80;99.90
5508;DHT22;2776;51.046;6.772;2022-08-21T09:54:29;23.80;99.90
5508;DHT22;2776;51.046;6.772;2022-08-21T09:56:58;23.70;99.90
5508;DHT22;2776;51.046;6.772;2022-08-21T09:59:45;23.60;99.90
5508;DHT22;2776;51.046;6.772;2022-08-21T10:02:24;23.60;99.90
5508;DHT22;2776;51.046;6.772;2022-08-21T10:04:52;23.60;99.90
5508;DHT22;2776;51.046;6.772;2022-08-21T10:07:25;23.60;99.90
5508;DHT22;2776;51.046;6.772;2022-08-21T10:10:05;23.70;99.90
5508;DHT22;2776;51.046;6.772;2022-08-21T10:12:56;23.70;99.90
5508;DHT22;2776;51.046;6.772;2022-08-21T10:15:47;23.70;99.90
5508;DHT22;2776;51.046;6.772;2022-08-21T10:18:22;23.80;99.90
5508;DHT22;2776;51.046;6.772;2022-08-21T10:20:59;24.00;99.90
5508;DHT22;2776;51.046;6.772;2022-08-21T10:23:36;24.00;98.80
5508;DHT22;2776;51.046;6.772;2022-08-21T10:26:20;24.10;99.20
5508;DHT22;2776;51.046;6.772;2022-08-21T10:28:56;24.20;99.20
5508;DHT22;2776;51.046;6.772;2022-08-21T10:31:35;24.30;97.90
5508;DHT22;2776;51.046;6.772;2022-08-21T10:34:13;24.40;97.10
5508;DHT22;2776;51.046;6.772;2022-08-21T10:36:47;24.40;97.70
5508;DHT22;2776;51.046;6.772;2022-08-21T10:39:21;24.50;96.00
5508;DHT22;2776;51.046;6.772;2022-08-21T10:42:07;24.50;96.10
5508;DHT22;2776;51.046;6.772;2022-08-21T10:44:41;24.50;96.90
5508;DHT22;2776;51.046;6.772;2022-08-21T10:47:17;24.70;98.70
5508;DHT22;2776;51.046;6.772;2022-08-21T10:49:54;24.70;97.40
5508;DHT22;2776;51.046;6.772;2022-08-21T10:52:41;24.80;96.70
5508;DHT22;2776;51.046;6.772;2022-08-21T10:55:16;24.90;94.60
5508;DHT22;2776;51.046;6.772;2022-08-21T10:57:47;25.00;94.20
5508;DHT22;2776;51.046;6.772;2022-08-21T11:00:19;25.10;93.20
5508;DHT22;2776;51.046;6.772;2022-08-21T11:02:51;25.30;92.80
5508;DHT22;2776;51.046;6.772;2022-08-21T11:05:23;25.20;91.20
5508;DHT22;2776;51.046;6.772;2022-08-21T11:07:55;25.30;92.40
5508;DHT22;2776;51.046;6.772;2022-08-21T11:10:28;25.40;92.10
5508;DHT22;2776;51.046;6.772;2022-08-21T11:12:58;25.40;91.30
5508;DHT22;2776;51.046;6.772;2022-08-21T11:15:33;25.50;89.30
5508;DHT22;2776;51.046;6.772;2022-08-21T11:18:22;25.50;87.50
5508;DHT22;2776;51.046;6.772;2022-08-21T11:20:59;25.50;88.40
5508;DHT22;2776;51.046;6.772;2022-08-21T11:23:33;25.50;89.00
5508;DHT22;2776;51.046;6.772;2022-08-21T11:26:09;25.50;85.70
5508;DHT22;2776;51.046;6.772;2022-08-21T11:28:42;25.50;89.40
5508;DHT22;2776;51.046;6.772;2022-08-21T11:31:20;25.50;86.80
5508;DHT22;2776;51.046;6.772;2022-08-21T11:33:59;25.70;90.20
5508;DHT22;2776;51.046;6.772;2022-08-21T11:36:32;25.70;88.80
5508;DHT22;2776;51.046;6.772;2022-08-21T11:39:16;25.70;84.50
5508;DHT22;2776;51.046;6.772;2022-08-21T11:41:53;25.70;83.60
5508;DHT22;2776;51.046;6.772;2022-08-21T11:44:27;25.80;85.60
5508;DHT22;2776;51.046;6.772;2022-08-21T11:47:03;25.80;81.80
5508;DHT22;2776;51.046;6.772;2022-08-21T11:49:43;25.80;80.90
5508;DHT22;2776;51.046;6.772;2022-08-21T11:52:17;25.70;78.10
5508;DHT22;2776;51.046;6.772;2022-08-21T11:54:48;25.80;82.90
5508;DHT22;2776;51.046;6.772;2022-08-21T11:57:21;25.80;76.80
5508;DHT22;2776;51.046;6.772;2022-08-21T11:59:52;25.80;73.30
5508;DHT22;2776;51.046;6.772;2022-08-21T12:02:27;25.80;78.20
5508;DHT22;2776;51.046;6.772;2022-08-21T12:04:56;25.90;81.00
5508;DHT22;2776;51.046;6.772;2022-08-21T12:07:34;26.20;81.50
5508;DHT22;2776;51.046;6.772;2022-08-21T12:10:04;26.00;72.00
5508;DHT22;2776;51.046;6.772;2022-08-21T12:12:35;25.90;69.40
5508;DHT22;2776;51.046;6.772;2022-08-21T12:15:23;25.90;76.20
5508;DHT22;2776;51.046;6.772;2022-08-21T12:17:53;25.80;73.70
5508;DHT22;2776;51.046;6.772;2022-08-21T12:23:24;25.80;77.00
5508;DHT22;2776;51.046;6.772;2022-08-21T12:26:02;25.90;77.20
5508;DHT22;2776;51.046;6.772;2022-08-21T12:28:31;26.00;70.30
5508;DHT22;2776;51.046;6.772;2022-08-21T12:30:58;26.00;73.70
5508;DHT22;2776;51.046;6.772;2022-08-21T12:33:28;26.00;69.00
5508;DHT22;2776;51.046;6.772;2022-08-21T12:36:03;26.10;70.20
5508;DHT22;2776;51.046;6.772;2022-08-21T12:38:33;26.20;73.10
5508;DHT22;2776;51.046;6.772;2022-08-21T12:41:04;26.20;69.30
5508;DHT22;2776;51.046;6.772;2022-08-21T12:43:37;26.10;68.50
5508;DHT22;2776;51.046;6.772;2022-08-21T12:46:05;26.10;70.20
5508;DHT22;2776;51.046;6.772;2022-08-21T12:48:35;26.10;72.20
5508;DHT22;2776;51.046;6.772;2022-08-21T12:51:10;26.20;68.20
5508;DHT22;2776;51.046;6.772;2022-08-21T12:53:45;26.30;67.70
5508;DHT22;2776;51.046;6.772;2022-08-21T12:56:15;26.30;67.10
5508;DHT22;2776;51.046;6.772;2022-08-21T12:58:47;26.30;66.60
5508;DHT22;2776;51.046;6.772;2022-08-21T13:01:19;26.20;68.60
5508;DHT22;2776;51.046;6.772;2022-08-21T13:03:48;26.30;72.10
5508;DHT22;2776;51.046;6.772;2022-08-21T13:06:17;26.30;72.60
5508;DHT22;2776;51.046;6.772;2022-08-21T13:08:47;26.40;67.40
5508;DHT22;2776;51.046;6.772;2022-08-21T13:11:16;26.40;63.20
5508;DHT22;2776;51.046;6.772;2022-08-21T13:13:48;26.40;62.90
5508;DHT22;2776;51.046;6.772;2022-08-21T13:16:19;26.50;65.40
5508;DHT22;2776;51.046;6.772;2022-08-21T13:18:54;26.60;66.80
5508;DHT22;2776;51.046;6.772;2022-08-21T13:21:26;26.70;63.40
5508;DHT22;2776;51.046;6.772;2022-08-21T13:23:53;26.80;61.40
5508;DHT22;2776;51.046;6.772;2022-08-21T13:26:21;26.80;62.60
5508;DHT22;2776;51.046;6.772;2022-08-21T13:28:50;27.00;59.10
5508;DHT22;2776;51.046;6.772;2022-08-21T13:31:20;27.00;57.40
5508;DHT22;2776;51.046;6.772;2022-08-21T13:33:49;26.90;57.50
5508;DHT22;2776;51.046;6.772;2022-08-21T13:36:20;26.90;55.00
5508;DHT22;2776;51.046;6.772;2022-08-21T13:38:47;26.90;55.20
5508;DHT22;2776;51.046;6.772;2022-08-21T13:41:20;27.00;55.80
5508;DHT22;2776;51.046;6.772;2022-08-21T13:43:56;27.00;54.90
5508;DHT22;2776;51.046;6.772;2022-08-21T13:46:26;27.10;52.30
5508;DHT22;2776;51.046;6.772;2022-08-21T13:48:55;27.20;53.50
5508;DHT22;2776;51.046;6.772;2022-08-21T13:51:22;27.30;52.60
5508;DHT22;2776;51.046;6.772;2022-08-21T13:53:51;27.40;53.00
5508;DHT22;2776;51.046;6.772;2022-08-21T13:56:23;27.60;53.80
5508;DHT22;2776;51.046;6.772;2022-08-21T13:58:53;27.70;53.90
5508;DHT22;2776;51.046;6.772;2022-08-21T14:01:23;27.70;51.00
5508;DHT22;2776;51.046;6.772;2022-08-21T14:03:53;27.70;51.00
5508;DHT22;2776;51.046;6.772;2022-08-21T14:06:25;27.60;49.20
5508;DHT22;2776;51.046;6.772;2022-08-21T14:08:56;27.80;51.40
5508;DHT22;2776;51.046;6.772;2022-08-21T14:11:24;27.70;48.40
5508;DHT22;2776;51.046;6.772;2022-08-21T14:14:00;27.60;49.10
5508;DHT22;2776;51.046;6.772;2022-08-21T14:16:41;27.60;51.00
5508;DHT22;2776;51.046;6.772;2022-08-21T14:19:17;27.50;49.50
5508;DHT22;2776;51.046;6.772;2022-08-21T14:21:44;27.40;48.20
5508;DHT22;2776;51.046;6.772;2022-08-21T14:24:14;27.40;49.80
5508;DHT22;2776;51.046;6.772;2022-08-21T14:26:46;27.40;51.70
5508;DHT22;2776;51.046;6.772;2022-08-21T14:29:18;27.40;49.70
5508;DHT22;2776;51.046;6.772;2022-08-21T14:31:50;27.30;48.30
5508;DHT22;2776;51.046;6.772;2022-08-21T14:34:17;27.20;49.90
5508;DHT22;2776;51.046;6.772;2022-08-21T14:36:44;27.30;50.80
5508;DHT22;2776;51.046;6.772;2022-08-21T14:39:11;27.20;50.00
5508;DHT22;2776;51.046;6.772;2022-08-21T14:41:38;27.20;50.20
5508;DHT22;2776;51.046;6.772;2022-08-21T14:44:06;27.10;53.10
5508;DHT22;2776;51.046;6.772;2022-08-21T14:46:35;27.00;50.20
5508;DHT22;2776;51.046;6.772;2022-08-21T14:49:02;27.00;50.00
5508;DHT22;2776;51.046;6.772;2022-08-21T14:51:29;27.00;49.30
5508;DHT22;2776;51.046;6.772;2022-08-21T14:53:56;26.90;49.00
5508;DHT22;2776;51.046;6.772;2022-08-21T14:56:23;26.90;48.10
5508;DHT22;2776;51.046;6.772;2022-08-21T14:58:51;26.70;48.30
5508;DHT22;2776;51.046;6.772;2022-08-21T15:01:20;26.70;49.50
5508;DHT22;2776;51.046;6.772;2022-08-21T15:03:49;26.60;51.40
5508;DHT22;2776;51.046;6.772;2022-08-21T15:06:17;26.70;49.30
5508;DHT22;2776;51.046;6.772;2022-08-21T15:08:46;26.60;51.90
5508;DHT22;2776;51.046;6.772;2022-08-21T15:11:16;26.60;51.10
5508;DHT22;2776;51.046;6.772;2022-08-21T15:13:44;26.60;52.40
5508;DHT22;2776;51.046;6.772;2022-08-21T15:16:11;26.70;53.00
5508;DHT22;2776;51.046;6.772;2022-08-21T15:18:39;26.60;53.40
5508;DHT22;2776;51.046;6.772;2022-08-21T15:21:08;26.60;52.20
5508;DHT22;2776;51.046;6.772;2022-08-21T15:23:35;26.60;51.10
5508;DHT22;2776;51.046;6.772;2022-08-21T15:26:02;26.60;50.40
5508;DHT22;2776;51.046;6.772;2022-08-21T15:28:29;26.60;53.50
5508;DHT22;2776;51.046;6.772;2022-08-21T15:30:55;26.50;52.70
5508;DHT22;2776;51.046;6.772;2022-08-21T15:33:23;26.40;55.80
5508;DHT22;2776;51.046;6.772;2022-08-21T15:35:50;26.40;54.90
5508;DHT22;2776;51.046;6.772;2022-08-21T15:38:18;26.30;53.30
5508;DHT22;2776;51.046;6.772;2022-08-21T15:40:45;26.30;52.20
5508;DHT22;2776;51.046;6.772;2022-08-21T15:43:21;26.20;52.00
5508;DHT22;2776;51.046;6.772;2022-08-21T15:45:48;26.20;53.00
5508;DHT22;2776;51.046;6.772;2022-08-21T15:48:15;26.30;55.40
5508;DHT22;2776;51.046;6.772;2022-08-21T15:50:43;26.30;56.00
5508;DHT22;2776;51.046;6.772;2022-08-21T15:53:10;26.40;53.90
5508;DHT22;2776;51.046;6.772;2022-08-21T15:55:38;26.40;54.80
5508;DHT22;2776;51.046;6.772;2022-08-21T15:58:06;26.50;53.80
5508;DHT22;2776;51.046;6.772;2022-08-21T16:00:35;26.60;54.30
5508;DHT22;2776;51.046;6.772;2022-08-21T16:03:04;26.60;54.90
5508;DHT22;2776;51.046;6.772;2022-08-21T16:05:32;26.70;54.00
5508;DHT22;2776;51.046;6.772;2022-08-21T16:08:00;26.70;55.80
5508;DHT22;2776;51.046;6.772;2022-08-21T16:10:28;26.70;54.40
5508;DHT22;2776;51.046;6.772;2022-08-21T16:12:58;26.70;52.10
5508;DHT22;2776;51.046;6.772;2022-08-21T16:15:27;26.70;51.90
5508;DHT22;2776;51.046;6.772;2022-08-21T16:17:55;26.60;52.10
5508;DHT22;2776;51.046;6.772;2022-08-21T16:20:25;26.50;53.70